Time;durP1;ratioP1;P1;durP2;ratioP2;P2;SDS_P1;SDS_P2;PMS_P1;PMS_P2;Temp;Humidity;BMP_temperature;BMP_pressure;BME280_temperature;BME280_humidity;BME280_pressure;Samples;Min_cycle;Max_cycle;Signal;HPM_P1;HPM_P2
2023/04/10 00:00:12;;;;;;;6.70;3.30;;;4.90;74.40;;;;;;5049971;28;20143;-75
2023/04/10 00:02:41;;;;;;;10.15;3.20;;;4.90;73.70;;;;;;5048425;28;20133;-74
2023/04/10 00:05:09;;;;;;;4.70;3.38;;;4.90;73.50;;;;;;5048075;28;20737;-75
2023/04/10 00:07:37;;;;;;;7.32;2.30;;;4.90;74.10;;;;;;5050868;28;20579;-74
2023/04/10 00:10:05;;;;;;;5.50;2.42;;;4.90;74.00;;;;;;5031005;28;20486;-73
2023/04/10 00:12:36;;;;;;;4.57;2.38;;;4.90;73.70;;;;;;5048931;28;20063;-74
2023/04/10 00:15:05;;;;;;;4.35;2.17;;;4.80;73.80;;;;;;5042340;28;20142;-73
2023/04/10 00:17:32;;;;;;;3.05;2.25;;;4.80;74.00;;;;;;5048223;28;20044;-75
2023/04/10 00:20:00;;;;;;;5.25;2.72;;;4.90;74.10;;;;;;5048099;28;20049;-74
2023/04/10 00:22:27;;;;;;;3.58;2.08;;;4.80;73.90;;;;;;5048759;28;20044;-75
2023/04/10 00:24:55;;;;;;;3.72;2.53;;;4.80;74.50;;;;;;5046961;28;20058;-74
2023/04/10 00:27:22;;;;;;;4.63;2.33;;;4.80;75.00;;;;;;5032975;28;20104;-74
2023/04/10 00:29:51;;;;;;;9.25;2.53;;;4.80;74.70;;;;;;5039566;28;20075;-74
2023/04/10 00:32:18;;;;;;;5.10;2.53;;;4.70;75.00;;;;;;5045948;28;20056;-75
2023/04/10 00:34:46;;;;;;;3.35;1.55;;;4.70;75.60;;;;;;5028334;28;20075;-74
2023/04/10 00:37:13;;;;;;;2.85;1.98;;;4.70;75.20;;;;;;5035772;28;20049;-74
2023/04/10 00:39:40;;;;;;;5.57;3.35;;;4.70;75.50;;;;;;5020686;28;20141;-75
2023/04/10 00:42:08;;;;;;;5.35;2.60;;;4.70;75.80;;;;;;5042694;28;20133;-74
2023/04/10 00:44:36;;;;;;;6.97;2.55;;;4.70;75.90;;;;;;5048625;28;20044;-74
2023/04/10 00:47:06;;;;;;;4.35;2.28;;;4.70;76.00;;;;;;5043055;28;20052;-75
2023/04/10 00:49:34;;;;;;;5.03;2.10;;;4.70;76.30;;;;;;5047730;28;20049;-75
2023/04/10 00:52:02;;;;;;;4.32;2.28;;;4.60;75.80;;;;;;5045326;28;20099;-75
2023/04/10 00:54:31;;;;;;;7.20;3.05;;;4.60;76.20;;;;;;5039120;28;20049;-74
2023/04/10 00:56:59;;;;;;;4.63;2.40;;;4.50;77.00;;;;;;5032236;28;20576;-75
2023/04/10 00:59:26;;;;;;;4.50;2.45;;;4.40;77.50;;;;;;5048830;28;20049;-74
2023/04/10 01:01:54;;;;;;;7.18;2.53;;;4.40;77.70;;;;;;5049874;28;20041;-74
2023/04/10 01:04:25;;;;;;;7.60;2.45;;;4.50;77.60;;;;;;5049438;28;20049;-75
2023/04/10 01:06:59;;;;;;;6.95;2.63;;;4.50;77.70;;;;;;5022743;28;20155;-76
2023/04/10 01:09:48;;;;;;;7.70;3.38;;;4.40;77.80;;;;;;5041803;28;20053;-75
2023/04/10 01:12:38;;;;;;;5.32;2.30;;;4.40;78.40;;;;;;5048912;28;20402;-76
2023/04/10 01:15:10;;;;;;;5.65;2.80;;;4.40;78.50;;;;;;5048145;28;20104;-75
2023/04/10 01:17:46;;;;;;;6.38;2.50;;;4.40;79.70;;;;;;5048647;28;20072;-76
2023/04/10 01:20:22;;;;;;;3.60;2.33;;;4.40;79.90;;;;;;5032986;28;20046;-76
2023/04/10 01:23:34;;;;;;;6.28;2.38;;;4.30;79.20;;;;;;5047668;28;20456;-76
2023/04/10 01:26:05;;;;;;;4.13;2.15;;;4.30;79.50;;;;;;4992513;28;20049;-75
2023/04/10 01:29:00;;;;;;;5.88;2.15;;;4.30;79.60;;;;;;5029920;28;20053;-75
2023/04/10 01:31:37;;;;;;;4.00;2.35;;;4.30;80.50;;;;;;5049967;28;20049;-74
2023/04/10 01:34:10;;;;;;;7.47;2.90;;;4.20;82.10;;;;;;5050442;28;20058;-75
2023/04/10 01:36:56;;;;;;;6.72;2.58;;;4.20;82.80;;;;;;5052104;28;20045;-75
2023/04/10 01:39:27;;;;;;;4.38;2.40;;;4.10;82.80;;;;;;5052399;28;20075;-76
2023/04/10 01:41:58;;;;;;;8.00;3.47;;;4.10;82.90;;;;;;5056724;28;20083;-76
2023/04/10 01:44:41;;;;;;;6.45;2.50;;;4.10;83.00;;;;;;5034188;28;20045;-76
2023/04/10 01:47:09;;;;;;;13.35;3.53;;;4.10;83.60;;;;;;5033795;28;20049;-76
2023/04/10 01:49:43;;;;;;;6.80;2.90;;;4.10;83.90;;;;;;5038627;28;20053;-76
2023/04/10 01:52:12;;;;;;;10.98;3.83;;;4.10;84.00;;;;;;5035939;28;20512;-76
2023/04/10 01:54:42;;;;;;;5.15;3.17;;;4.00;84.80;;;;;;5026287;28;20498;-76
2023/04/10 01:57:14;;;;;;;10.65;2.95;;;4.00;85.50;;;;;;5016076;28;20045;-77
2023/04/10 01:59:52;;;;;;;7.85;3.83;;;4.00;86.50;;;;;;5050103;28;20064;-77
2023/04/10 02:02:20;;;;;;;6.80;2.78;;;4.00;87.20;;;;;;5050702;28;20077;-76
2023/04/10 02:04:50;;;;;;;7.05;2.60;;;3.90;88.30;;;;;;5034365;28;20041;-75
2023/04/10 02:07:27;;;;;;;4.47;3.17;;;3.90;89.50;;;;;;5051697;28;20457;-75
2023/04/10 02:10:07;;;;;;;6.35;3.13;;;3.90;90.20;;;;;;5050529;28;20057;-75
2023/04/10 02:12:43;;;;;;;7.35;2.72;;;3.80;90.90;;;;;;5033918;28;20049;-76
2023/04/10 02:15:12;;;;;;;11.90;3.20;;;3.80;91.70;;;;;;5048935;28;20049;-75
2023/04/10 02:17:41;;;;;;;7.20;2.85;;;3.80;92.20;;;;;;5052970;28;20153;-75
2023/04/10 02:20:10;;;;;;;7.40;2.85;;;3.70;93.00;;;;;;5050377;28;20139;-75
2023/04/10 02:22:43;;;;;;;5.88;2.33;;;3.70;93.50;;;;;;5049246;28;20056;-75
2023/04/10 02:25:11;;;;;;;6.13;2.90;;;3.70;94.00;;;;;;5052625;28;20048;-75
2023/04/10 02:27:40;;;;;;;9.50;2.47;;;3.70;96.20;;;;;;5044571;28;20516;-75
2023/04/10 02:30:09;;;;;;;4.82;2.22;;;3.70;96.70;;;;;;5031887;28;20053;-75
2023/04/10 02:32:38;;;;;;;6.07;2.63;;;3.70;97.20;;;;;;5050988;28;20424;-75
2023/04/10 02:35:09;;;;;;;10.20;2.53;;;3.70;97.50;;;;;;5050636;28;20146;-74
2023/04/10 02:37:38;;;;;;;5.30;2.53;;;3.70;97.90;;;;;;5048888;28;20391;-75
2023/04/10 02:40:07;;;;;;;5.10;2.55;;;3.60;98.40;;;;;;5022902;28;20056;-76
2023/04/10 02:42:45;;;;;;;5.88;2.40;;;3.60;99.10;;;;;;5048901;28;20053;-74
2023/04/10 02:45:12;;;;;;;7.93;2.33;;;3.60;99.90;;;;;;5053166;28;20464;-75
2023/04/10 02:47:44;;;;;;;7.10;2.75;;;3.60;99.90;;;;;;5034747;28;20049;-76
2023/04/10 02:50:12;;;;;;;6.15;2.17;;;3.60;99.90;;;;;;5048017;28;20053;-77
2023/04/10 02:52:42;;;;;;;6.32;2.38;;;3.60;99.90;;;;;;5030873;28;20048;-76
2023/04/10 02:55:11;;;;;;;13.27;3.15;;;3.60;99.90;;;;;;5050481;28;20080;-77
2023/04/10 02:57:41;;;;;;;9.10;2.67;;;3.60;99.90;;;;;;5050321;28;20053;-76
2023/04/10 03:00:10;;;;;;;19.50;2.95;;;3.60;99.90;;;;;;5048008;28;20080;-76
2023/04/10 03:03:10;;;;;;;10.35;3.08;;;3.50;99.90;;;;;;5031310;28;20713;-75
2023/04/10 03:05:49;;;;;;;13.40;2.92;;;3.50;99.90;;;;;;5033735;28;20060;-76
2023/04/10 03:08:19;;;;;;;11.90;2.83;;;3.50;99.90;;;;;;5040035;28;20567;-75
2023/04/10 03:10:48;;;;;;;23.67;3.85;;;3.40;99.90;;;;;;5032414;28;20068;-75
2023/04/10 03:13:15;;;;;;;4.05;3.05;;;3.40;99.90;;;;;;5049734;28;20465;-75
2023/04/10 03:15:43;;;;;;;8.70;3.08;;;3.40;99.90;;;;;;5040166;28;20481;-74
2023/04/10 03:18:12;;;;;;;6.15;3.17;;;3.40;99.90;;;;;;5036268;28;20513;-74
2023/04/10 03:20:41;;;;;;;8.90;2.63;;;3.40;99.90;;;;;;5042342;28;20505;-74
2023/04/10 03:23:09;;;;;;;5.97;2.53;;;3.40;99.90;;;;;;5047655;28;20052;-74
2023/04/10 03:25:37;;;;;;;4.18;2.58;;;3.40;99.90;;;;;;5019829;28;20395;-74
2023/04/10 03:28:07;;;;;;;13.90;3.10;;;3.30;99.90;;;;;;5036692;28;20076;-74
2023/04/10 03:30:35;;;;;;;10.13;2.80;;;3.40;99.90;;;;;;5051415;28;20098;-75
2023/04/10 03:33:03;;;;;;;11.82;5.30;;;3.40;99.90;;;;;;5036673;28;20067;-74
2023/04/10 03:35:32;;;;;;;4.70;3.42;;;3.40;99.90;;;;;;5041703;28;20053;-76
2023/04/10 03:38:00;;;;;;;13.18;3.67;;;3.40;99.90;;;;;;5034016;28;20143;-76
2023/04/10 03:40:27;;;;;;;11.02;4.45;;;3.40;99.90;;;;;;5031616;28;20041;-77
2023/04/10 03:42:56;;;;;;;9.57;3.15;;;3.40;99.90;;;;;;5047550;28;20482;-77
2023/04/10 03:45:24;;;;;;;17.98;4.28;;;3.40;99.90;;;;;;5031989;28;20144;-75
2023/04/10 03:47:51;;;;;;;21.00;4.20;;;3.40;99.90;;;;;;5049485;28;20049;-76
2023/04/10 03:50:20;;;;;;;22.77;7.45;;;3.40;99.90;;;;;;5044784;28;20481;-76
2023/04/10 03:52:55;;;;;;;10.63;3.60;;;3.40;99.90;;;;;;5031026;28;20053;-76
2023/04/10 03:55:24;;;;;;;15.82;2.80;;;3.40;99.90;;;;;;5049606;28;20041;-74
2023/04/10 03:57:52;;;;;;;10.43;3.38;;;3.40;99.90;;;;;;5032513;28;20071;-75
2023/04/10 04:00:26;;;;;;;17.15;3.70;;;3.40;99.90;;;;;;5040935;28;20510;-74
2023/04/10 04:03:05;;;;;;;23.13;3.15;;;3.40;99.90;;;;;;5048656;28;20056;-76
2023/04/10 04:05:58;;;;;;;13.50;2.90;;;3.50;99.90;;;;;;5049066;28;20535;-77
2023/04/10 04:08:50;;;;;;;7.25;3.30;;;3.50;99.90;;;;;;5046158;28;20136;-76
2023/04/10 04:11:41;;;;;;;19.92;4.10;;;3.50;99.90;;;;;;5041935;28;20045;-76
2023/04/10 04:14:24;;;;;;;15.75;3.85;;;3.50;99.90;;;;;;5039635;28;20057;-75
2023/04/10 04:17:17;;;;;;;8.55;2.85;;;3.60;99.90;;;;;;5032200;28;20056;-76
2023/04/10 04:20:11;;;;;;;11.68;2.97;;;3.60;99.90;;;;;;5042403;28;20088;-74
2023/04/10 04:23:07;;;;;;;8.65;3.20;;;3.60;99.90;;;;;;5041850;28;20041;-76
2023/04/10 04:26:11;;;;;;;14.68;3.78;;;3.70;99.90;;;;;;5011277;28;20053;-74
2023/04/10 04:28:52;;;;;;;19.07;3.67;;;3.70;99.90;;;;;;5042180;28;20063;-77
2023/04/10 04:31:58;;;;;;;20.95;3.85;;;3.70;99.90;;;;;;4971476;28;20285;-77
2023/04/10 04:34:54;;;;;;;12.95;3.30;;;3.60;99.90;;;;;;4975860;28;20047;-77
2023/04/10 04:37:56;;;;;;;19.27;3.72;;;3.60;99.90;;;;;;5037482;28;20056;-76
2023/04/10 04:41:15;;;;;;;20.77;4.88;;;3.70;99.90;;;;;;4967712;28;20054;-78
2023/04/10 04:44:21;;;;;;;22.60;3.97;;;3.70;99.90;;;;;;5001683;28;20139;-77
2023/04/10 04:46:58;;;;;;;16.15;3.85;;;3.80;99.90;;;;;;5043601;28;20045;-77
2023/04/10 04:49:28;;;;;;;17.50;3.45;;;3.90;99.90;;;;;;5046864;28;20440;-78
2023/04/10 04:52:11;;;;;;;23.88;4.20;;;3.90;99.90;;;;;;5048344;28;20056;-77
2023/04/10 04:54:47;;;;;;;12.68;4.07;;;3.90;99.90;;;;;;5029851;28;20041;-77
2023/04/10 04:57:15;;;;;;;10.82;4.45;;;4.00;99.90;;;;;;5049228;28;20064;-76
2023/04/10 05:00:07;;;;;;;33.95;4.82;;;4.00;99.90;;;;;;5032563;28;20053;-78
2023/04/10 05:03:02;;;;;;;17.35;5.35;;;4.00;99.90;;;;;;5031988;28;20060;-79
2023/04/10 05:05:43;;;;;;;15.43;4.63;;;4.10;99.90;;;;;;5027387;28;20056;-72
2023/04/10 05:08:29;;;;;;;11.90;4.18;;;4.20;99.90;;;;;;5040915;28;20455;-76
2023/04/10 05:11:20;;;;;;;14.55;4.18;;;4.20;99.90;;;;;;5032857;28;20049;-74
2023/04/10 05:14:16;;;;;;;16.08;3.58;;;4.30;99.90;;;;;;5052142;28;20051;-74
2023/04/10 05:17:08;;;;;;;18.95;4.05;;;4.30;99.90;;;;;;5036528;28;20057;-74
2023/04/10 05:19:42;;;;;;;20.15;4.18;;;4.40;99.90;;;;;;5048849;28;20049;-75
2023/04/10 05:22:35;;;;;;;11.05;3.60;;;4.50;99.90;;;;;;5021443;28;20544;-76
2023/04/10 05:25:26;;;;;;;18.55;4.25;;;4.60;99.90;;;;;;5008476;28;20075;-75
2023/04/10 05:28:18;;;;;;;22.02;3.88;;;4.70;99.90;;;;;;5043805;28;20044;-76
2023/04/10 05:31:08;;;;;;;16.85;4.28;;;4.80;99.90;;;;;;5033251;28;20057;-76
2023/04/10 05:33:40;;;;;;;12.65;4.90;;;4.90;99.90;;;;;;5040149;28;20136;-76
2023/04/10 05:36:37;;;;;;;10.18;3.72;;;5.00;99.90;;;;;;4994706;28;20055;-76
2023/04/10 05:39:24;;;;;;;26.48;4.60;;;5.10;99.90;;;;;;5044535;28;20053;-75
2023/04/10 05:41:58;;;;;;;23.02;5.10;;;5.20;99.90;;;;;;5046106;28;20054;-77
2023/04/10 05:44:45;;;;;;;33.42;6.05;;;5.40;99.90;;;;;;5044555;28;20506;-76
2023/04/10 05:47:28;;;;;;;20.92;5.63;;;5.70;99.90;;;;;;5042866;28;20041;-76
2023/04/10 05:50:07;;;;;;;22.15;5.65;;;6.40;99.90;;;;;;5041820;28;20570;-77
2023/04/10 05:52:56;;;;;;;29.23;7.28;;;7.30;99.90;;;;;;5033679;28;20203;-75
2023/04/10 05:55:51;;;;;;;;;;;8.10;99.90;;;;;;5029245;28;20065;-76
2023/04/10 05:58:37;;;;;;;28.98;5.97;;;8.90;95.70;;;;;;5044164;28;19924;-78
2023/04/10 06:01:30;;;;;;;28.95;6.20;;;9.50;93.60;;;;;;5024525;28;20051;-79
2023/04/10 06:04:02;;;;;;;16.90;6.28;;;10.10;91.70;;;;;;5050212;28;20056;-79
2023/04/10 06:06:32;;;;;;;25.60;6.15;;;10.60;89.10;;;;;;5049411;28;20574;-79
2023/04/10 06:09:00;;;;;;;17.83;4.93;;;11.10;84.90;;;;;;5029638;28;20049;-79
2023/04/10 06:11:27;;;;;;;13.07;4.30;;;11.50;79.50;;;;;;5045577;28;20048;-77
2023/04/10 06:13:59;;;;;;;16.30;4.45;;;11.70;78.10;;;;;;5044746;28;20060;-77
2023/04/10 06:16:34;;;;;;;31.50;4.63;;;12.00;76.30;;;;;;5045958;28;20056;-77
2023/04/10 06:19:01;;;;;;;17.10;5.82;;;12.50;73.90;;;;;;5067287;28;20052;-78
2023/04/10 06:21:31;;;;;;;20.33;5.38;;;12.90;72.00;;;;;;5051686;28;20429;-76
2023/04/10 06:23:59;;;;;;;16.42;4.80;;;13.30;68.50;;;;;;5053020;28;20091;-75
2023/04/10 06:26:26;;;;;;;19.80;5.20;;;13.40;68.60;;;;;;5044873;28;20046;-77
2023/04/10 06:28:54;;;;;;;19.13;4.60;;;13.70;66.10;;;;;;5041463;28;20068;-77
2023/04/10 06:31:22;;;;;;;20.73;4.93;;;14.00;66.20;;;;;;5031626;28;20339;-77
2023/04/10 06:33:50;;;;;;;16.70;4.72;;;14.20;65.10;;;;;;5049458;28;20045;-79
2023/04/10 06:36:17;;;;;;;10.95;4.43;;;14.50;63.60;;;;;;5049074;28;20140;-78
2023/04/10 06:38:57;;;;;;;22.33;4.97;;;14.90;61.70;;;;;;5017055;28;20080;-78
2023/04/10 06:41:25;;;;;;;12.25;4.20;;;15.10;60.90;;;;;;5028599;28;20065;-77
2023/04/10 06:43:55;;;;;;;18.40;5.15;;;15.30;59.60;;;;;;5030245;28;20492;-76
2023/04/10 06:46:22;;;;;;;22.30;4.85;;;15.70;59.10;;;;;;5014204;28;20045;-78
2023/04/10 06:48:49;;;;;;;20.55;4.97;;;16.00;57.60;;;;;;5029734;28;20144;-78
2023/04/10 06:51:17;;;;;;;16.58;4.22;;;16.20;57.80;;;;;;5028491;28;20053;-76
2023/04/10 06:53:50;;;;;;;12.10;4.20;;;16.40;56.20;;;;;;5037499;28;20067;-78
2023/04/10 06:56:19;;;;;;;13.23;5.10;;;16.50;56.10;;;;;;5049552;28;20040;-79
2023/04/10 06:58:47;;;;;;;16.40;4.47;;;16.80;55.90;;;;;;5048462;28;20067;-76
2023/04/10 07:01:16;;;;;;;7.20;4.13;;;17.10;55.00;;;;;;5031731;28;20049;-77
2023/04/10 07:03:43;;;;;;;13.07;5.00;;;17.40;54.40;;;;;;5043282;28;20042;-76
2023/04/10 07:06:11;;;;;;;18.83;5.43;;;17.50;53.90;;;;;;5050730;28;20049;-78
2023/04/10 07:08:38;;;;;;;22.35;4.85;;;17.70;53.30;;;;;;5047407;28;20056;-78
2023/04/10 07:11:06;;;;;;;25.88;5.90;;;18.00;53.00;;;;;;5048590;28;20135;-78
2023/04/10 07:13:37;;;;;;;23.42;5.82;;;18.10;52.80;;;;;;5051086;28;20088;-77
2023/04/10 07:16:07;;;;;;;13.27;4.80;;;18.30;53.30;;;;;;5050180;28;20110;-77
2023/04/10 07:18:37;;;;;;;19.40;5.40;;;18.50;51.90;;;;;;5051574;28;20106;-77
2023/04/10 07:21:11;;;;;;;14.80;4.95;;;18.80;51.00;;;;;;5051494;28;20063;-78
2023/04/10 07:23:38;;;;;;;22.85;5.78;;;19.10;50.90;;;;;;5050109;28;20531;-78
2023/04/10 07:26:06;;;;;;;17.75;5.75;;;19.10;50.40;;;;;;5039438;28;20049;-78
2023/04/10 07:28:35;;;;;;;23.05;5.93;;;19.10;51.00;;;;;;5029888;28;20146;-77
2023/04/10 07:31:02;;;;;;;24.75;6.10;;;19.30;50.30;;;;;;5051430;28;20049;-77
2023/04/10 07:33:30;;;;;;;19.67;7.10;;;19.50;49.30;;;;;;5049220;28;20091;-78
2023/04/10 07:35:58;;;;;;;22.60;6.07;;;19.70;49.70;;;;;;5032197;28;20049;-79
2023/04/10 07:38:26;;;;;;;27.05;5.97;;;20.00;48.90;;;;;;5030350;28;20107;-79
2023/04/10 07:40:57;;;;;;;16.40;5.28;;;20.30;48.20;;;;;;5030332;28;20077;-81
2023/04/10 07:43:24;;;;;;;17.77;4.65;;;20.40;47.50;;;;;;5038048;28;20058;-78
2023/04/10 07:45:54;;;;;;;13.95;5.10;;;20.30;47.60;;;;;;5032703;28;20075;-80
2023/04/10 07:48:22;;;;;;;28.00;5.32;;;20.40;47.70;;;;;;5041960;28;20509;-79
2023/04/10 07:50:49;;;;;;;21.77;4.80;;;20.40;47.30;;;;;;5037701;28;20045;-80
2023/04/10 07:53:17;;;;;;;21.83;5.53;;;20.60;47.40;;;;;;5039919;28;20071;-79
2023/04/10 07:55:47;;;;;;;24.02;5.32;;;21.20;46.60;;;;;;5044743;28;20049;-79
2023/04/10 07:58:15;;;;;;;31.83;6.38;;;21.70;46.90;;;;;;5038135;28;20092;-79
2023/04/10 08:00:42;;;;;;;19.38;5.80;;;21.90;46.00;;;;;;5043557;28;20075;-79
2023/04/10 08:03:12;;;;;;;24.52;5.82;;;22.10;47.00;;;;;;5047545;28;20041;-80
2023/04/10 08:05:41;;;;;;;21.45;5.07;;;22.10;44.60;;;;;;5040129;28;20052;-82
2023/04/10 08:08:09;;;;;;;24.73;5.82;;;22.10;45.70;;;;;;5042781;28;20131;-81
2023/04/10 08:10:37;;;;;;;20.95;4.75;;;22.20;45.10;;;;;;5041822;28;20042;-81
2023/04/10 08:13:05;;;;;;;15.07;4.82;;;22.40;44.40;;;;;;5044110;28;20405;-79
2023/04/10 08:15:33;;;;;;;14.63;4.85;;;22.50;44.70;;;;;;5041688;28;20580;-81
2023/04/10 08:18:01;;;;;;;22.00;4.95;;;22.90;44.30;;;;;;5042750;28;20053;-81
2023/04/10 08:20:35;;;;;;;11.75;5.30;;;23.40;44.20;;;;;;5042509;28;20091;-81
2023/04/10 08:23:03;;;;;;;16.85;5.55;;;23.70;43.40;;;;;;5040391;28;20611;-82
2023/04/10 08:25:32;;;;;;;22.58;4.85;;;24.00;42.90;;;;;;5024316;28;20110;-82
2023/04/10 08:28:00;;;;;;;31.48;7.05;;;24.30;43.50;;;;;;5027306;28;20052;-81
2023/04/10 08:30:27;;;;;;;20.83;5.43;;;24.50;43.30;;;;;;5044277;28;20057;-77
2023/04/10 08:32:55;;;;;;;19.75;4.75;;;24.60;42.70;;;;;;5023756;28;20053;-78
2023/04/10 08:35:24;;;;;;;25.50;5.85;;;24.70;41.70;;;;;;5041371;28;20053;-80
2023/04/10 08:37:52;;;;;;;21.58;5.70;;;25.10;41.40;;;;;;5047937;28;20045;-79
2023/04/10 08:40:20;;;;;;;14.35;4.57;;;25.60;43.00;;;;;;5062462;28;20052;-78
2023/04/10 08:42:48;;;;;;;12.82;4.70;;;25.70;41.60;;;;;;5036867;28;20052;-79
2023/04/10 08:45:15;;;;;;;12.35;4.53;;;25.80;41.50;;;;;;5041635;28;20049;-80
2023/04/10 08:47:44;;;;;;;10.45;4.53;;;25.90;40.80;;;;;;5033558;28;20049;-77
2023/04/10 08:50:16;;;;;;;8.68;4.22;;;26.00;40.20;;;;;;5039080;28;20568;-77
2023/04/10 08:52:45;;;;;;;10.40;3.78;;;26.00;39.60;;;;;;5039091;28;20072;-80
2023/04/10 08:55:14;;;;;;;14.02;4.28;;;26.30;39.50;;;;;;5044508;28;20517;-80
2023/04/10 08:57:42;;;;;;;7.28;4.00;;;26.10;40.20;;;;;;5047186;28;20052;-79
2023/04/10 09:00:11;;;;;;;12.13;3.70;;;25.90;39.10;;;;;;5042559;28;20493;-80
2023/04/10 09:02:40;;;;;;;8.40;4.05;;;25.90;40.00;;;;;;5039510;28;20136;-80
2023/04/10 09:05:12;;;;;;;10.00;3.47;;;26.00;39.20;;;;;;5045872;28;20052;-81
2023/04/10 09:07:40;;;;;;;7.00;3.72;;;26.10;38.90;;;;;;5046907;28;20141;-81
2023/04/10 09:10:09;;;;;;;7.18;3.65;;;26.30;38.90;;;;;;5032374;28;20111;-82
2023/04/10 09:12:49;;;;;;;5.82;4.07;;;26.60;39.90;;;;;;5046119;28;20147;-82
2023/04/10 09:15:17;;;;;;;12.45;4.30;;;27.00;38.60;;;;;;5061909;28;20046;-83
2023/04/10 09:18:00;;;;;;;10.68;3.70;;;27.30;38.90;;;;;;5042319;28;20104;-81
2023/04/10 09:20:31;;;;;;;8.57;3.83;;;27.30;37.70;;;;;;5036379;28;20049;-80
2023/04/10 09:22:58;;;;;;;7.57;3.65;;;27.20;37.70;;;;;;5038880;28;20045;-80
2023/04/10 09:25:35;;;;;;;11.57;4.07;;;27.20;37.30;;;;;;5037803;28;20489;-79
2023/04/10 09:28:06;;;;;;;8.45;3.78;;;27.40;38.50;;;;;;5027115;28;20050;-80
2023/04/10 09:30:39;;;;;;;11.20;4.22;;;27.60;38.10;;;;;;5037457;28;20505;-79
2023/04/10 09:33:26;;;;;;;11.35;3.90;;;27.50;38.50;;;;;;5040865;28;20147;-80
2023/04/10 09:35:55;;;;;;;16.48;3.97;;;27.80;38.40;;;;;;5019515;28;20041;-78
2023/04/10 09:38:24;;;;;;;10.75;3.88;;;28.20;38.40;;;;;;5038949;28;20045;-81
2023/04/10 09:40:51;;;;;;;13.27;4.93;;;28.50;38.30;;;;;;5041443;28;20071;-81
2023/04/10 09:43:23;;;;;;;11.18;4.18;;;28.30;36.50;;;;;;5033928;28;20052;-79
2023/04/10 09:45:52;;;;;;;;;;;28.10;37.50;;;;;;5040603;28;20505;-81
2023/04/10 09:48:20;;;;;;;8.52;4.00;;;27.70;37.90;;;;;;5037736;28;19926;-76
2023/04/10 09:50:51;;;;;;;8.95;3.97;;;26.90;37.50;;;;;;5039478;28;20099;-77
2023/04/10 09:53:20;;;;;;;12.82;4.55;;;26.20;38.40;;;;;;5040192;28;20052;-77
2023/04/10 09:55:49;;;;;;;13.10;4.82;;;25.50;39.00;;;;;;5041136;28;20049;-76
2023/04/10 09:58:20;;;;;;;14.70;4.88;;;25.30;39.10;;;;;;5043410;28;20103;-77
2023/04/10 10:00:51;;;;;;;11.82;4.57;;;25.40;39.80;;;;;;5041133;28;20128;-76
2023/04/10 10:03:24;;;;;;;9.13;3.97;;;25.90;40.80;;;;;;5039891;28;20140;-77
2023/04/10 10:05:52;;;;;;;12.93;3.80;;;26.70;38.60;;;;;;5037405;28;20068;-76
2023/04/10 10:08:22;;;;;;;12.70;4.25;;;27.10;37.70;;;;;;5034962;28;20037;-77
2023/04/10 10:10:54;;;;;;;16.75;4.05;;;27.60;38.10;;;;;;5032243;28;20345;-78
2023/04/10 10:13:29;;;;;;;14.73;4.63;;;28.20;37.90;;;;;;5042656;28;20045;-80
2023/04/10 10:16:09;;;;;;;15.35;4.32;;;28.40;37.30;;;;;;5043293;28;20139;-81
2023/04/10 10:18:44;;;;;;;9.18;3.90;;;28.40;37.70;;;;;;5042111;28;20045;-81
2023/04/10 10:21:16;;;;;;;7.75;4.28;;;28.70;37.50;;;;;;5039621;28;20091;-80
2023/04/10 10:23:47;;;;;;;13.02;4.13;;;29.20;36.40;;;;;;5043131;28;20518;-84
2023/04/10 10:26:16;;;;;;;6.97;3.92;;;29.20;35.80;;;;;;5024542;28;20049;-80
2023/04/10 10:28:47;;;;;;;11.68;3.80;;;29.20;35.90;;;;;;5041024;28;20489;-79
2023/04/10 10:31:17;;;;;;;7.10;3.40;;;29.50;36.10;;;;;;5045575;28;20123;-84
2023/04/10 10:33:46;;;;;;;9.60;3.80;;;29.50;34.80;;;;;;5039341;28;20145;-82
2023/04/10 10:36:17;;;;;;;8.25;3.75;;;29.80;34.00;;;;;;5042878;28;20045;-83
2023/04/10 10:38:54;;;;;;;14.85;4.22;;;29.60;34.10;;;;;;5043956;28;20429;-82
2023/04/10 10:41:27;;;;;;;15.00;3.88;;;29.80;33.90;;;;;;5067226;28;20044;-83
2023/04/10 10:44:11;;;;;;;11.63;3.72;;;29.50;33.90;;;;;;5047754;28;20104;-83
2023/04/10 10:46:49;;;;;;;11.30;3.35;;;29.50;33.60;;;;;;5044977;28;20052;-80
2023/04/10 10:49:17;;;;;;;11.70;3.80;;;29.30;33.80;;;;;;5043843;28;20067;-79
2023/04/10 10:51:46;;;;;;;5.20;3.28;;;28.70;34.00;;;;;;5050203;28;20041;-79
2023/04/10 10:54:31;;;;;;;4.53;3.03;;;27.90;33.90;;;;;;5049972;28;20052;-80
2023/04/10 10:56:59;;;;;;;7.00;2.72;;;27.00;35.30;;;;;;5051608;28;20049;-82
2023/04/10 10:59:56;;;;;;;7.38;3.50;;;26.60;35.80;;;;;;5051164;28;20072;-82
2023/04/10 11:02:25;;;;;;;6.22;3.30;;;26.50;36.90;;;;;;5039093;28;20077;-79
2023/04/10 11:04:53;;;;;;;9.25;3.33;;;26.50;36.60;;;;;;5045971;28;20060;-81
2023/04/10 11:07:21;;;;;;;11.60;3.95;;;26.30;35.50;;;;;;5050955;28;20045;-82
2023/04/10 11:09:51;;;;;;;5.78;3.28;;;26.20;36.80;;;;;;5044142;28;20538;-81
2023/04/10 11:12:22;;;;;;;8.23;3.67;;;26.40;36.00;;;;;;5051076;28;20102;-79
2023/04/10 11:15:00;;;;;;;5.78;3.30;;;26.90;36.50;;;;;;5050598;28;20110;-81
2023/04/10 11:17:57;;;;;;;6.47;3.80;;;26.90;35.70;;;;;;5048709;28;20065;-83
2023/04/10 11:20:27;;;;;;;9.30;3.17;;;27.20;36.00;;;;;;5007838;28;20052;-82
2023/04/10 11:23:12;;;;;;;5.30;3.15;;;26.80;35.50;;;;;;5036567;28;20075;-78
2023/04/10 11:25:51;;;;;;;8.65;3.13;;;25.60;36.00;;;;;;5016833;28;20057;-78
2023/04/10 11:28:38;;;;;;;6.90;2.90;;;25.80;37.90;;;;;;5045131;28;20589;-80
2023/04/10 11:31:18;;;;;;;11.38;2.83;;;26.70;36.30;;;;;;5046779;28;20117;-79
2023/04/10 11:33:48;;;;;;;11.23;3.60;;;27.50;35.20;;;;;;5040878;28;20425;-78
2023/04/10 11:36:17;;;;;;;5.28;3.03;;;28.10;34.80;;;;;;5050271;28;20528;-78
2023/04/10 11:38:56;;;;;;;8.05;3.00;;;28.30;34.60;;;;;;5047295;28;20528;-77
2023/04/10 11:41:29;;;;;;;6.85;2.92;;;29.20;34.50;;;;;;5049329;28;20148;-78
2023/04/10 11:43:57;;;;;;;9.27;3.13;;;30.40;33.90;;;;;;5038073;28;20753;-77
2023/04/10 11:46:25;;;;;;;7.75;3.72;;;30.60;32.60;;;;;;5040162;28;20049;-77
2023/04/10 11:49:00;;;;;;;7.20;2.95;;;30.60;33.00;;;;;;5043145;28;20053;-77
2023/04/10 11:51:28;;;;;;;8.30;3.00;;;30.70;32.30;;;;;;5023906;28;20044;-77
2023/04/10 11:54:08;;;;;;;4.90;2.95;;;30.90;32.30;;;;;;5049448;28;20055;-76
2023/04/10 11:56:36;;;;;;;7.13;2.60;;;30.70;32.40;;;;;;5048012;28;20056;-77
2023/04/10 11:59:06;;;;;;;6.18;3.10;;;30.20;32.50;;;;;;5049786;28;20049;-82
2023/04/10 12:01:34;;;;;;;11.02;3.17;;;28.90;33.20;;;;;;5049250;28;20050;-81
2023/04/10 12:04:14;;;;;;;10.02;3.22;;;27.10;35.10;;;;;;5049204;28;20053;-82
2023/04/10 12:06:45;;;;;;;14.50;3.30;;;26.00;35.50;;;;;;5049319;28;20190;-77
2023/04/10 12:09:14;;;;;;;8.97;3.70;;;25.10;36.20;;;;;;5046449;28;20048;-77
2023/04/10 12:11:50;;;;;;;4.57;3.20;;;24.10;37.50;;;;;;5048459;28;20053;-78
2023/04/10 12:14:19;;;;;;;4.43;3.20;;;23.70;37.90;;;;;;5046286;28;20080;-77
2023/04/10 12:16:47;;;;;;;9.45;3.22;;;22.90;39.20;;;;;;5047084;28;20055;-78
2023/04/10 12:19:18;;;;;;;15.55;3.30;;;23.00;38.90;;;;;;5048705;28;20053;-76
2023/04/10 12:21:46;;;;;;;7.00;3.22;;;22.60;39.00;;;;;;5041032;28;20052;-76
2023/04/10 12:24:43;;;;;;;8.25;3.40;;;21.70;39.80;;;;;;5032592;28;20045;-79
2023/04/10 12:27:17;;;;;;;7.18;2.97;;;21.00;41.00;;;;;;5033477;28;20057;-76
2023/04/10 12:29:45;;;;;;;8.45;3.33;;;20.20;42.70;;;;;;5038105;28;20048;-76
2023/04/10 12:32:13;;;;;;;7.45;3.72;;;19.80;43.60;;;;;;5041617;28;20049;-74
2023/04/10 12:34:42;;;;;;;7.50;3.10;;;19.90;44.30;;;;;;5038799;28;20133;-75
2023/04/10 12:37:10;;;;;;;8.68;3.50;;;20.20;43.00;;;;;;5040970;28;20057;-75
2023/04/10 12:39:37;;;;;;;10.85;3.25;;;20.20;42.90;;;;;;5039970;28;20156;-75
2023/04/10 12:42:15;;;;;;;13.18;2.85;;;20.20;43.00;;;;;;5037486;28;20502;-77
2023/04/10 12:44:54;;;;;;;11.07;3.85;;;20.80;42.90;;;;;;5037580;28;21455;-77
2023/04/10 12:47:23;;;;;;;7.85;3.03;;;21.40;42.60;;;;;;5039578;28;20049;-78
2023/04/10 12:50:06;;;;;;;10.45;3.15;;;22.90;40.90;;;;;;5038564;28;20044;-80
2023/04/10 12:52:34;;;;;;;17.77;3.58;;;24.80;38.40;;;;;;5041217;28;20045;-80
2023/04/10 12:55:15;;;;;;;10.90;3.35;;;24.50;37.80;;;;;;5042699;28;20112;-79
2023/04/10 12:57:45;;;;;;;12.63;3.43;;;25.00;39.50;;;;;;5034278;28;20472;-80
2023/04/10 13:00:15;;;;;;;8.90;3.20;;;26.70;37.40;;;;;;5039434;28;20044;-81
2023/04/10 13:02:43;;;;;;;7.45;3.25;;;27.60;35.30;;;;;;5037246;28;20053;-80
2023/04/10 13:05:13;;;;;;;15.63;3.05;;;27.20;34.90;;;;;;5038022;28;20056;-80
2023/04/10 13:07:41;;;;;;;6.18;2.80;;;25.70;37.20;;;;;;5041132;28;20509;-79
2023/04/10 13:10:09;;;;;;;14.35;3.53;;;24.50;37.30;;;;;;5043686;28;20132;-81
2023/04/10 13:12:37;;;;;;;6.35;3.05;;;23.80;38.30;;;;;;5047108;28;20051;-82
2023/04/10 13:15:07;;;;;;;11.63;3.13;;;22.90;39.20;;;;;;5043895;28;20057;-80
2023/04/10 13:17:35;;;;;;;6.72;3.38;;;21.90;40.30;;;;;;5018986;28;20589;-79